Hungerford, Texas
Current Conditions -  °F | °C
As of 6:15 AM on Monday 26 Jan 2015 (Local Time) from KARM Reporting Station
Clear Clear  
Wind Chill: 38°   Ceiling: Unl
Heat Index: 42°   Visibility: 10mi
Dew Point: 36°   Wind: 7mph
Humidity: 77%   Direction: 310°NW
Pressure: 30.24"   Gusts: NA
Location:  29.4°N, 96.08°W
Report Text: KARM 261215Z AUTO 31006KT 10SM CLR 06/02 A3024 RMK AO2 T00570020
Loading
Personal Weather Stations






























Interactive Weather Map New forecast layout! Learn more

10-Day Weather Forecast

Advertisements
Track Severe Weather on mobile